Humidity-temperature Sensor

Selected Measurement Type: Air Temperature

 
Air Temperature [°C]     6 entries per hour
Showing data from 10/11/2018 (00:00:00 Z) to 10/10/2018 (00:01:00 Z)
Previous Next [ Day | 3-Days | 7-Days ]
First Last
Prev [ Day | 3-Days | 7-Days ] Next
First Last

Start Time:     :
End Time:     :     
Time (in GMT) :00 :50 :40 :30 :20 :10
Previous Next [ Day | 3-Days | 7-Days ]
First Last
Prev [ Day | 3-Days | 7-Days ] Next
First Last


123 => good data
MM => data is determined as missing
-- => data not received/configured
Back to Top Back to Top
10/11/2018 00:00 to 23:10 23.79 23.84 23.78 23.85 23.86 23.83
10/10/2018 23:00 to 22:10 23.85 23.79 23.68 23.90 23.85 23.88
10/10/2018 22:00 to 21:10 24.08 24.05 24.02 23.96 23.97 23.94
10/10/2018 21:00 to 20:10 24.00 23.94 24.02 23.87 23.86 24.01
10/10/2018 20:00 to 19:10 24.02 24.16 23.95 23.98 23.86 24.00
10/10/2018 19:00 to 18:10 23.76 23.74 23.76 23.89 23.94 24.05
10/10/2018 18:00 to 17:10 23.90 23.88 23.82 24.00 23.91 24.10
10/10/2018 17:00 to 16:10 23.90 23.91 24.05 24.03 24.07 24.08
10/10/2018 16:00 to 15:10 23.95 23.89 23.85 23.91 23.76 23.88
10/10/2018 15:00 to 14:10 23.90 23.94 24.17 24.06 24.05 24.10
10/10/2018 14:00 to 13:10 24.10 24.01 24.02 23.47 23.32 23.33
10/10/2018 13:00 to 12:10 23.17 23.35 23.13 23.09 23.09 23.00
10/10/2018 12:00 to 11:10 23.17 23.13 23.31 23.45 23.38 23.27
10/10/2018 11:00 to 10:10 23.16 23.34 23.02 23.09 22.94 23.15
10/10/2018 10:00 to 9:10 22.93 22.98 23.02 22.96 22.94 23.18
10/10/2018 09:00 to 8:10 23.00 23.13 23.16 23.14 23.07 23.08
10/10/2018 08:00 to 7:10 23.12 23.01 23.18 23.15 23.10 23.31
10/10/2018 07:00 to 6:10 23.24 23.13 23.13 23.24 23.39 23.20
10/10/2018 06:00 to 5:10 23.18 23.31 23.27 23.33 23.24 23.34
10/10/2018 05:00 to 4:10 23.37 23.21 23.27 23.32 23.27 23.21
10/10/2018 04:00 to 3:10 23.21 23.20 23.21 23.27 23.35 23.24
10/10/2018 03:00 to 2:10 23.37 23.32 23.22 23.28 23.29 23.25
10/10/2018 02:00 to 1:10 23.27 23.32 23.34 23.23 23.35 23.41
10/10/2018 01:00 to 0:10 23.28 23.18 23.37 23.30 23.17 23.26